»·PEaware :: DAL616 KSJC-KBUR

DAL616 :: KSJC-KBUR

FLIGHT INFORMATION

Flight Status: Arrived
Operator:
Delta Air Lines
More flights by this operator :: More flights under this callsign
Pilot: Kevin M. (7)
Aircraft: BOEING 737-800
(B738)
More flights by this aircraft type
Origin: KSJC Mineta San Jose Intl
United States
Destination: KBUR Bob Hope-Burbank
United States
More flights between these airports :: More routes between these airports
Route: TECKY3 EBAYE BURGL HONZK ROKKR2
File this flight plan on PilotEdge
Remarks:
Altitude:
(Current/Filed)
33,000ft
Speed:
(Current/Filed)
468kts
Departed: 12-Nov-20 01:24 PM
Arrived: 12-Nov-20 02:11 PM
Distance/Time
Traveled:
258nm/0:47
Distance/Time
To Go:
Arrived

Flight Plot

Page will automatically refresh every two minutes.

Flight plan parsing failed; only flown route is shown


Map Options




Map Legend


Flown Route
Filed Route
Departure Airport
Arrival Airport
Navaid (VOR, NDB)
Fix

Horizontal Profiles

Position Reports

Time Latitude Longitude Heading Altitude Ground
Speed
12-Nov-20 12:58 33.446541 -94.001012 44 345ft 0kts
12-Nov-20 12:59 37.363032 -121.923255 48 73ft 0kts
12-Nov-20 13:00 37.363032 -121.923255 48 73ft 0kts
12-Nov-20 13:01 37.363032 -121.923255 48 73ft 0kts
12-Nov-20 13:02 37.363032 -121.923255 48 73ft 0kts
12-Nov-20 13:03 37.363032 -121.923255 48 73ft 0kts
12-Nov-20 13:04 37.363032 -121.923255 48 73ft 0kts
12-Nov-20 13:05 37.363032 -121.923255 48 73ft 0kts
12-Nov-20 13:06 37.363032 -121.923255 48 73ft 0kts
12-Nov-20 13:07 37.363032 -121.923255 48 73ft 0kts
12-Nov-20 13:08 37.363032 -121.923255 48 73ft 0kts
12-Nov-20 13:09 37.363032 -121.923255 48 73ft 0kts
12-Nov-20 13:10 37.363032 -121.923255 48 73ft 0kts
12-Nov-20 13:11 37.363032 -121.923255 48 73ft 0kts
12-Nov-20 13:12 37.363032 -121.923255 48 73ft 0kts
12-Nov-20 13:13 37.363032 -121.923255 48 73ft 0kts
12-Nov-20 13:14 37.363032 -121.923255 48 73ft 0kts
12-Nov-20 13:15 37.363032 -121.923256 48 73ft 0kts
12-Nov-20 13:16 37.363032 -121.923256 48 73ft 0kts
12-Nov-20 13:17 37.362676 -121.923759 48 73ft 2kts
12-Nov-20 13:18 37.362673 -121.924101 139 73ft 0kts
12-Nov-20 13:19 37.362673 -121.924100 139 73ft 0kts
12-Nov-20 13:20 37.359002 -121.920058 139 73ft 30kts
12-Nov-20 13:21 37.354299 -121.914912 139 73ft 15kts
12-Nov-20 13:22 37.353052 -121.914497 227 73ft 0kts
12-Nov-20 13:23 37.355564 -121.918867 318 73ft 95kts
12-Nov-20 13:24 37.391323 -121.957050 318 2419ft 200kts
12-Nov-20 13:25 37.445944 -121.965995 55 5118ft 266kts
12-Nov-20 13:26 37.427107 -121.884977 144 8706ft 285kts
12-Nov-20 13:27 37.361111 -121.821083 141 11399ft 327kts
12-Nov-20 13:28 37.289729 -121.744287 138 14502ft 348kts
12-Nov-20 13:29 37.216438 -121.660705 139 17497ft 367kts
12-Nov-20 13:30 37.138615 -121.572618 139 19979ft 385kts
12-Nov-20 13:31 37.057298 -121.480919 139 22350ft 404kts
12-Nov-20 13:32 36.969813 -121.387836 140 24507ft 421kts
12-Nov-20 13:33 36.879423 -121.291691 141 26495ft 434kts
12-Nov-20 13:34 36.786323 -121.192785 141 28287ft 446kts
12-Nov-20 13:35 36.690852 -121.091657 143 30030ft 454kts
12-Nov-20 13:36 36.593739 -120.989416 145 31643ft 460kts
12-Nov-20 13:37 36.494995 -120.889563 146 33088ft 463kts
12-Nov-20 13:38 36.393599 -120.786892 146 33133ft 472kts
12-Nov-20 13:39 36.292370 -120.684466 146 33122ft 471kts
12-Nov-20 13:40 36.190861 -120.582060 146 33125ft 470kts
12-Nov-20 13:41 36.089297 -120.479922 146 33119ft 470kts
12-Nov-20 13:42 35.987716 -120.378147 146 33134ft 471kts
12-Nov-20 13:43 35.886135 -120.277321 150 33127ft 467kts
12-Nov-20 13:44 35.776961 -120.191818 154 33122ft 464kts
12-Nov-20 13:45 35.665812 -120.113694 162 33121ft 458kts
12-Nov-20 13:46 35.547960 -120.055687 164 33119ft 455kts
12-Nov-20 13:47 35.431101 -120.001447 165 33117ft 448kts
12-Nov-20 13:48 35.314139 -119.948205 165 33034ft 452kts
12-Nov-20 13:49 35.195288 -119.894424 164 29666ft 450kts
12-Nov-20 13:50 35.090960 -119.831187 152 27477ft 397kts
12-Nov-20 13:51 34.999596 -119.745439 145 27192ft 435kts
12-Nov-20 13:52 34.902707 -119.646139 143 24598ft 469kts
12-Nov-20 13:53 34.818372 -119.531584 134 19393ft 446kts
12-Nov-20 13:54 34.744860 -119.423260 132 16797ft 382kts
12-Nov-20 13:55 34.679885 -119.324381 132 15518ft 363kts
12-Nov-20 13:56 34.623751 -119.229314 124 14376ft 339kts
12-Nov-20 13:57 34.574486 -119.129272 123 12499ft 342kts
12-Nov-20 13:58 34.519048 -119.046398 145 11677ft 300kts
12-Nov-20 13:59 34.453137 -118.985699 146 10223ft 296kts
12-Nov-20 14:00 34.391538 -118.925201 138 9481ft 271kts
12-Nov-20 14:01 34.366982 -118.837470 95 8099ft 291kts
12-Nov-20 14:02 34.360103 -118.741593 95 6149ft 278kts
12-Nov-20 14:03 34.353645 -118.654666 94 5379ft 256kts
12-Nov-20 14:05 34.349309 -118.572339 91 4428ft 239kts
12-Nov-20 14:06 34.346216 -118.495054 91 3395ft 209kts
12-Nov-20 14:07 34.324071 -118.440881 147 2945ft 178kts
12-Nov-20 14:08 34.288043 -118.397836 134 3024ft 174kts
12-Nov-20 14:09 34.247167 -118.370291 169 1901ft 158kts
12-Nov-20 14:10 34.206998 -118.359033 166 764ft 142kts
12-Nov-20 14:11 34.197196 -118.353286 90 713ft 5kts
12-Nov-20 14:12 34.196827 -118.352869 178 711ft 0kts
12-Nov-20 14:13 34.196827 -118.352869 178 711ft 0kts
12-Nov-20 14:14 34.196827 -118.352869 178 711ft 0kts
12-Nov-20 14:15 34.196827 -118.352869 178 711ft 0kts

Navigation Log

Ident Type
Flight plan parsing failed, navigation log unavailable